sensor_id;sensor_type;location;lat;lon;timestamp;temperature;humidity
3208;DHT22;1616;52.394;9.756;2023-03-21T00:02:10;8.80;1.00
3208;DHT22;1616;52.394;9.756;2023-03-21T00:04:35;8.80;1.00
3208;DHT22;1616;52.394;9.756;2023-03-21T00:07:01;8.80;1.00
3208;DHT22;1616;52.394;9.756;2023-03-21T00:09:27;8.90;1.00
3208;DHT22;1616;52.394;9.756;2023-03-21T00:11:52;8.80;1.00
3208;DHT22;1616;52.394;9.756;2023-03-21T00:14:18;8.90;1.00
3208;DHT22;1616;52.394;9.756;2023-03-21T00:16:45;8.90;1.00
3208;DHT22;1616;52.394;9.756;2023-03-21T00:19:16;8.90;1.00
3208;DHT22;1616;52.394;9.756;2023-03-21T00:21:43;8.90;1.00
3208;DHT22;1616;52.394;9.756;2023-03-21T00:24:10;9.00;1.00
3208;DHT22;1616;52.394;9.756;2023-03-21T00:26:35;8.90;1.00
3208;DHT22;1616;52.394;9.756;2023-03-21T00:29:02;8.90;1.00
3208;DHT22;1616;52.394;9.756;2023-03-21T00:31:28;8.90;1.00
3208;DHT22;1616;52.394;9.756;2023-03-21T00:33:54;8.90;1.00
3208;DHT22;1616;52.394;9.756;2023-03-21T00:36:19;9.00;1.00
3208;DHT22;1616;52.394;9.756;2023-03-21T00:38:46;9.00;1.00
3208;DHT22;1616;52.394;9.756;2023-03-21T00:41:12;9.00;1.00
3208;DHT22;1616;52.394;9.756;2023-03-21T00:43:39;8.90;1.00
3208;DHT22;1616;52.394;9.756;2023-03-21T00:46:05;9.00;1.00
3208;DHT22;1616;52.394;9.756;2023-03-21T00:48:30;9.00;1.00
3208;DHT22;1616;52.394;9.756;2023-03-21T00:50:56;9.00;1.00
3208;DHT22;1616;52.394;9.756;2023-03-21T00:53:24;9.00;1.00
3208;DHT22;1616;52.394;9.756;2023-03-21T00:55:49;9.10;1.00
3208;DHT22;1616;52.394;9.756;2023-03-21T00:58:15;9.00;1.00
3208;DHT22;1616;52.394;9.756;2023-03-21T01:00:42;9.00;1.00
3208;DHT22;1616;52.394;9.756;2023-03-21T01:03:11;9.00;1.00
3208;DHT22;1616;52.394;9.756;2023-03-21T01:05:39;9.00;1.00
3208;DHT22;1616;52.394;9.756;2023-03-21T01:08:24;9.10;1.00
3208;DHT22;1616;52.394;9.756;2023-03-21T01:10:51;9.10;1.00
3208;DHT22;1616;52.394;9.756;2023-03-21T01:13:18;9.10;1.00
3208;DHT22;1616;52.394;9.756;2023-03-21T01:15:49;9.00;1.00
3208;DHT22;1616;52.394;9.756;2023-03-21T01:18:17;9.10;1.00
3208;DHT22;1616;52.394;9.756;2023-03-21T01:20:44;9.00;1.00
3208;DHT22;1616;52.394;9.756;2023-03-21T01:23:11;9.00;1.00
3208;DHT22;1616;52.394;9.756;2023-03-21T01:25:37;9.10;1.00
3208;DHT22;1616;52.394;9.756;2023-03-21T01:28:04;8.90;1.00
3208;DHT22;1616;52.394;9.756;2023-03-21T01:30:30;9.00;1.00
3208;DHT22;1616;52.394;9.756;2023-03-21T01:32:56;9.00;1.00
3208;DHT22;1616;52.394;9.756;2023-03-21T01:35:22;9.00;1.00
3208;DHT22;1616;52.394;9.756;2023-03-21T01:37:48;9.10;1.00
3208;DHT22;1616;52.394;9.756;2023-03-21T01:40:23;9.10;1.00
3208;DHT22;1616;52.394;9.756;2023-03-21T01:42:49;9.10;1.00
3208;DHT22;1616;52.394;9.756;2023-03-21T01:48:18;9.10;1.00
3208;DHT22;1616;52.394;9.756;2023-03-21T01:50:46;9.10;1.00
3208;DHT22;1616;52.394;9.756;2023-03-21T01:53:12;9.10;1.00
3208;DHT22;1616;52.394;9.756;2023-03-21T01:55:39;9.00;1.00
3208;DHT22;1616;52.394;9.756;2023-03-21T01:58:06;9.00;1.00
3208;DHT22;1616;52.394;9.756;2023-03-21T02:00:34;9.00;1.00
3208;DHT22;1616;52.394;9.756;2023-03-21T02:03:04;9.00;1.00
3208;DHT22;1616;52.394;9.756;2023-03-21T02:05:55;9.10;1.00
3208;DHT22;1616;52.394;9.756;2023-03-21T02:08:25;9.10;1.00
3208;DHT22;1616;52.394;9.756;2023-03-21T02:10:50;9.10;1.00
3208;DHT22;1616;52.394;9.756;2023-03-21T02:13:16;9.10;1.00
3208;DHT22;1616;52.394;9.756;2023-03-21T02:16:00;9.10;1.00
3208;DHT22;1616;52.394;9.756;2023-03-21T02:21:26;9.10;1.00
3208;DHT22;1616;52.394;9.756;2023-03-21T02:24:15;9.10;1.00
3208;DHT22;1616;52.394;9.756;2023-03-21T02:27:04;9.00;1.00
3208;DHT22;1616;52.394;9.756;2023-03-21T02:29:38;9.10;1.00
3208;DHT22;1616;52.394;9.756;2023-03-21T02:37:48;9.10;1.00
3208;DHT22;1616;52.394;9.756;2023-03-21T02:41:18;9.10;1.00
3208;DHT22;1616;52.394;9.756;2023-03-21T02:43:48;9.10;1.00
3208;DHT22;1616;52.394;9.756;2023-03-21T02:46:30;9.20;1.00
3208;DHT22;1616;52.394;9.756;2023-03-21T02:49:20;9.20;1.00
3208;DHT22;1616;52.394;9.756;2023-03-21T02:51:48;9.10;1.00
3208;DHT22;1616;52.394;9.756;2023-03-21T02:54:17;9.10;1.00
3208;DHT22;1616;52.394;9.756;2023-03-21T02:56:46;9.20;1.00
3208;DHT22;1616;52.394;9.756;2023-03-21T02:59:15;9.20;1.00
3208;DHT22;1616;52.394;9.756;2023-03-21T03:01:43;9.20;1.00
3208;DHT22;1616;52.394;9.756;2023-03-21T03:04:25;9.20;1.00
3208;DHT22;1616;52.394;9.756;2023-03-21T03:09:27;9.10;1.00
3208;DHT22;1616;52.394;9.756;2023-03-21T03:15:12;9.20;1.00
3208;DHT22;1616;52.394;9.756;2023-03-21T03:18:12;9.30;1.00
3208;DHT22;1616;52.394;9.756;2023-03-21T03:21:26;9.30;1.00
3208;DHT22;1616;52.394;9.756;2023-03-21T03:24:09;9.30;1.00
3208;DHT22;1616;52.394;9.756;2023-03-21T03:26:39;9.30;1.00
3208;DHT22;1616;52.394;9.756;2023-03-21T03:29:10;9.30;1.00
3208;DHT22;1616;52.394;9.756;2023-03-21T03:31:41;9.30;1.00
3208;DHT22;1616;52.394;9.756;2023-03-21T03:34:13;9.30;1.00
3208;DHT22;1616;52.394;9.756;2023-03-21T03:36:44;9.30;1.00
3208;DHT22;1616;52.394;9.756;2023-03-21T03:39:13;9.30;1.00
3208;DHT22;1616;52.394;9.756;2023-03-21T03:42:01;9.30;1.00
3208;DHT22;1616;52.394;9.756;2023-03-21T03:44:28;9.40;1.00
3208;DHT22;1616;52.394;9.756;2023-03-21T03:47:18;9.40;1.00
3208;DHT22;1616;52.394;9.756;2023-03-21T03:49:57;9.40;1.00
3208;DHT22;1616;52.394;9.756;2023-03-21T03:52:30;9.40;1.00
3208;DHT22;1616;52.394;9.756;2023-03-21T03:54:59;9.30;1.00
3208;DHT22;1616;52.394;9.756;2023-03-21T03:57:25;9.50;1.00
3208;DHT22;1616;52.394;9.756;2023-03-21T03:59:51;9.50;1.00
3208;DHT22;1616;52.394;9.756;2023-03-21T04:02:18;9.50;1.00
3208;DHT22;1616;52.394;9.756;2023-03-21T04:04:44;9.50;1.00
3208;DHT22;1616;52.394;9.756;2023-03-21T04:07:11;9.50;1.00
3208;DHT22;1616;52.394;9.756;2023-03-21T04:09:37;9.50;1.00
3208;DHT22;1616;52.394;9.756;2023-03-21T04:12:03;9.30;1.00
3208;DHT22;1616;52.394;9.756;2023-03-21T04:14:28;9.50;1.00
3208;DHT22;1616;52.394;9.756;2023-03-21T04:16:54;9.30;1.00
3208;DHT22;1616;52.394;9.756;2023-03-21T04:19:20;9.40;1.00
3208;DHT22;1616;52.394;9.756;2023-03-21T04:21:46;9.50;1.00
3208;DHT22;1616;52.394;9.756;2023-03-21T04:24:12;9.40;1.00
3208;DHT22;1616;52.394;9.756;2023-03-21T04:26:39;9.40;1.00
3208;DHT22;1616;52.394;9.756;2023-03-21T04:29:05;9.40;1.00
3208;DHT22;1616;52.394;9.756;2023-03-21T04:31:32;9.50;1.00
3208;DHT22;1616;52.394;9.756;2023-03-21T04:34:00;9.40;1.00
3208;DHT22;1616;52.394;9.756;2023-03-21T04:36:27;9.50;1.00
3208;DHT22;1616;52.394;9.756;2023-03-21T04:38:58;9.50;1.00
3208;DHT22;1616;52.394;9.756;2023-03-21T04:41:29;9.40;1.00
3208;DHT22;1616;52.394;9.756;2023-03-21T04:43:55;9.50;1.00
3208;DHT22;1616;52.394;9.756;2023-03-21T04:46:22;9.50;1.00
3208;DHT22;1616;52.394;9.756;2023-03-21T04:48:47;9.50;1.00
3208;DHT22;1616;52.394;9.756;2023-03-21T04:51:14;9.50;1.00
3208;DHT22;1616;52.394;9.756;2023-03-21T04:53:40;9.50;1.00
3208;DHT22;1616;52.394;9.756;2023-03-21T04:56:10;9.50;1.00
3208;DHT22;1616;52.394;9.756;2023-03-21T04:58:36;9.50;1.00
3208;DHT22;1616;52.394;9.756;2023-03-21T05:01:01;9.50;1.00
3208;DHT22;1616;52.394;9.756;2023-03-21T05:03:30;9.40;1.00
3208;DHT22;1616;52.394;9.756;2023-03-21T05:05:59;9.30;1.00
3208;DHT22;1616;52.394;9.756;2023-03-21T05:08:25;9.50;1.00
3208;DHT22;1616;52.394;9.756;2023-03-21T05:10:51;9.50;1.00
3208;DHT22;1616;52.394;9.756;2023-03-21T05:13:17;9.50;1.00
3208;DHT22;1616;52.394;9.756;2023-03-21T05:15:42;9.50;1.00
3208;DHT22;1616;52.394;9.756;2023-03-21T05:18:08;9.50;1.00
3208;DHT22;1616;52.394;9.756;2023-03-21T05:20:37;9.50;1.00
3208;DHT22;1616;52.394;9.756;2023-03-21T05:23:10;9.50;1.00
3208;DHT22;1616;52.394;9.756;2023-03-21T05:25:37;9.50;1.00
3208;DHT22;1616;52.394;9.756;2023-03-21T05:28:04;9.50;1.00
3208;DHT22;1616;52.394;9.756;2023-03-21T05:30:32;9.50;1.00
3208;DHT22;1616;52.394;9.756;2023-03-21T05:32:58;9.60;1.00
3208;DHT22;1616;52.394;9.756;2023-03-21T05:35:24;9.60;1.00
3208;DHT22;1616;52.394;9.756;2023-03-21T05:37:50;9.70;1.00
3208;DHT22;1616;52.394;9.756;2023-03-21T05:40:16;10.00;1.00
3208;DHT22;1616;52.394;9.756;2023-03-21T05:42:42;10.40;1.10
3208;DHT22;1616;52.394;9.756;2023-03-21T05:45:07;10.60;1.00
3208;DHT22;1616;52.394;9.756;2023-03-21T05:47:33;10.90;1.00
3208;DHT22;1616;52.394;9.756;2023-03-21T05:49:59;11.10;1.00
3208;DHT22;1616;52.394;9.756;2023-03-21T05:52:24;11.30;1.00
3208;DHT22;1616;52.394;9.756;2023-03-21T05:54:50;11.40;1.00
3208;DHT22;1616;52.394;9.756;2023-03-21T05:57:16;11.50;1.00
3208;DHT22;1616;52.394;9.756;2023-03-21T05:59:44;11.60;1.00
3208;DHT22;1616;52.394;9.756;2023-03-21T06:02:09;11.70;1.00
3208;DHT22;1616;52.394;9.756;2023-03-21T06:04:37;11.80;1.00
3208;DHT22;1616;52.394;9.756;2023-03-21T06:07:03;11.80;1.00
3208;DHT22;1616;52.394;9.756;2023-03-21T06:09:28;11.90;1.00
3208;DHT22;1616;52.394;9.756;2023-03-21T06:11:55;11.80;1.00
3208;DHT22;1616;52.394;9.756;2023-03-21T06:14:22;11.60;1.00
3208;DHT22;1616;52.394;9.756;2023-03-21T06:16:48;11.50;1.00
3208;DHT22;1616;52.394;9.756;2023-03-21T06:19:16;11.30;1.00
3208;DHT22;1616;52.394;9.756;2023-03-21T06:21:42;11.20;1.00
3208;DHT22;1616;52.394;9.756;2023-03-21T06:24:08;11.10;1.00
3208;DHT22;1616;52.394;9.756;2023-03-21T06:26:34;11.00;1.00
3208;DHT22;1616;52.394;9.756;2023-03-21T06:29:00;10.90;1.00
3208;DHT22;1616;52.394;9.756;2023-03-21T06:31:26;10.80;1.00
3208;DHT22;1616;52.394;9.756;2023-03-21T06:33:52;10.80;1.00
3208;DHT22;1616;52.394;9.756;2023-03-21T06:36:18;10.70;1.00
3208;DHT22;1616;52.394;9.756;2023-03-21T06:38:44;10.70;1.00
3208;DHT22;1616;52.394;9.756;2023-03-21T06:41:12;10.60;1.00
3208;DHT22;1616;52.394;9.756;2023-03-21T06:43:38;10.50;1.00
3208;DHT22;1616;52.394;9.756;2023-03-21T06:46:04;10.50;1.00
3208;DHT22;1616;52.394;9.756;2023-03-21T06:48:30;10.60;1.00
3208;DHT22;1616;52.394;9.756;2023-03-21T06:50:56;10.60;1.00
3208;DHT22;1616;52.394;9.756;2023-03-21T06:53:24;10.50;1.00
3208;DHT22;1616;52.394;9.756;2023-03-21T06:55:55;10.60;1.00
3208;DHT22;1616;52.394;9.756;2023-03-21T06:58:21;10.50;1.00
3208;DHT22;1616;52.394;9.756;2023-03-21T07:00:47;10.50;1.00
3208;DHT22;1616;52.394;9.756;2023-03-21T07:03:14;10.60;1.00
3208;DHT22;1616;52.394;9.756;2023-03-21T07:05:40;10.70;1.00
3208;DHT22;1616;52.394;9.756;2023-03-21T07:08:07;10.90;1.00
3208;DHT22;1616;52.394;9.756;2023-03-21T07:10:39;11.00;1.00
3208;DHT22;1616;52.394;9.756;2023-03-21T07:13:05;11.00;1.00
3208;DHT22;1616;52.394;9.756;2023-03-21T07:15:30;11.00;1.00
3208;DHT22;1616;52.394;9.756;2023-03-21T07:17:57;11.00;1.00
3208;DHT22;1616;52.394;9.756;2023-03-21T07:20:23;11.00;1.00
3208;DHT22;1616;52.394;9.756;2023-03-21T07:22:51;11.00;1.00
3208;DHT22;1616;52.394;9.756;2023-03-21T07:25:17;11.10;1.00
3208;DHT22;1616;52.394;9.756;2023-03-21T07:27:44;11.10;1.00
3208;DHT22;1616;52.394;9.756;2023-03-21T07:30:11;11.10;1.00
3208;DHT22;1616;52.394;9.756;2023-03-21T07:32:37;11.10;1.00
3208;DHT22;1616;52.394;9.756;2023-03-21T07:35:04;11.20;1.00
3208;DHT22;1616;52.394;9.756;2023-03-21T07:37:30;11.30;1.00
3208;DHT22;1616;52.394;9.756;2023-03-21T07:39:56;11.30;1.00
3208;DHT22;1616;52.394;9.756;2023-03-21T07:42:21;11.50;1.00
3208;DHT22;1616;52.394;9.756;2023-03-21T07:44:47;11.60;1.00
3208;DHT22;1616;52.394;9.756;2023-03-21T07:47:12;11.60;1.00
3208;DHT22;1616;52.394;9.756;2023-03-21T07:49:38;11.70;1.00
3208;DHT22;1616;52.394;9.756;2023-03-21T07:52:04;11.80;1.00
3208;DHT22;1616;52.394;9.756;2023-03-21T07:54:31;12.00;1.00
3208;DHT22;1616;52.394;9.756;2023-03-21T07:56:56;12.00;1.00
3208;DHT22;1616;52.394;9.756;2023-03-21T07:59:22;12.20;1.00
3208;DHT22;1616;52.394;9.756;2023-03-21T08:01:48;12.20;1.00
3208;DHT22;1616;52.394;9.756;2023-03-21T08:04:14;12.40;1.00
3208;DHT22;1616;52.394;9.756;2023-03-21T08:06:40;12.50;1.00
3208;DHT22;1616;52.394;9.756;2023-03-21T08:09:05;12.60;1.00
3208;DHT22;1616;52.394;9.756;2023-03-21T08:11:31;12.60;1.00
3208;DHT22;1616;52.394;9.756;2023-03-21T08:13:58;12.70;1.00
3208;DHT22;1616;52.394;9.756;2023-03-21T08:16:24;12.70;1.00
3208;DHT22;1616;52.394;9.756;2023-03-21T08:18:50;12.70;1.00
3208;DHT22;1616;52.394;9.756;2023-03-21T08:21:15;12.70;1.00
3208;DHT22;1616;52.394;9.756;2023-03-21T08:23:41;12.70;1.00
3208;DHT22;1616;52.394;9.756;2023-03-21T08:26:06;12.70;1.00
3208;DHT22;1616;52.394;9.756;2023-03-21T08:28:34;12.60;1.00
3208;DHT22;1616;52.394;9.756;2023-03-21T08:31:06;12.60;1.00
3208;DHT22;1616;52.394;9.756;2023-03-21T08:33:33;12.60;1.00
3208;DHT22;1616;52.394;9.756;2023-03-21T08:35:59;12.60;1.00
3208;DHT22;1616;52.394;9.756;2023-03-21T08:38:25;12.60;1.00
3208;DHT22;1616;52.394;9.756;2023-03-21T08:40:54;12.50;1.00
3208;DHT22;1616;52.394;9.756;2023-03-21T08:43:21;12.50;1.00
3208;DHT22;1616;52.394;9.756;2023-03-21T08:45:46;12.40;1.00
3208;DHT22;1616;52.394;9.756;2023-03-21T08:48:12;12.40;1.00
3208;DHT22;1616;52.394;9.756;2023-03-21T08:50:38;12.30;1.00
3208;DHT22;1616;52.394;9.756;2023-03-21T08:53:04;12.30;1.00
3208;DHT22;1616;52.394;9.756;2023-03-21T08:55:30;12.20;1.00
3208;DHT22;1616;52.394;9.756;2023-03-21T08:57:58;12.20;1.00
3208;DHT22;1616;52.394;9.756;2023-03-21T09:00:24;12.20;1.00
3208;DHT22;1616;52.394;9.756;2023-03-21T09:02:50;12.30;1.00
3208;DHT22;1616;52.394;9.756;2023-03-21T09:05:18;12.20;1.00
3208;DHT22;1616;52.394;9.756;2023-03-21T09:07:44;12.30;1.00
3208;DHT22;1616;52.394;9.756;2023-03-21T09:10:16;12.30;1.00
3208;DHT22;1616;52.394;9.756;2023-03-21T09:12:42;12.50;1.00
3208;DHT22;1616;52.394;9.756;2023-03-21T09:15:09;12.60;1.00
3208;DHT22;1616;52.394;9.756;2023-03-21T09:17:37;12.70;1.00
3208;DHT22;1616;52.394;9.756;2023-03-21T09:20:10;12.60;1.00
3208;DHT22;1616;52.394;9.756;2023-03-21T09:22:39;12.80;1.00
3208;DHT22;1616;52.394;9.756;2023-03-21T09:25:05;12.80;1.00
3208;DHT22;1616;52.394;9.756;2023-03-21T09:27:33;12.80;1.00
3208;DHT22;1616;52.394;9.756;2023-03-21T09:29:59;12.90;1.00
3208;DHT22;1616;52.394;9.756;2023-03-21T09:32:25;13.00;1.00
3208;DHT22;1616;52.394;9.756;2023-03-21T09:34:52;13.20;1.00
3208;DHT22;1616;52.394;9.756;2023-03-21T09:37:20;13.30;1.00
3208;DHT22;1616;52.394;9.756;2023-03-21T09:39:45;13.40;1.00
3208;DHT22;1616;52.394;9.756;2023-03-21T09:45:06;13.60;1.00
3208;DHT22;1616;52.394;9.756;2023-03-21T09:47:44;13.60;1.00
3208;DHT22;1616;52.394;9.756;2023-03-21T09:50:34;13.70;1.00
3208;DHT22;1616;52.394;9.756;2023-03-21T09:53:21;13.80;1.00
3208;DHT22;1616;52.394;9.756;2023-03-21T09:55:48;13.90;1.00
3208;DHT22;1616;52.394;9.756;2023-03-21T09:58:29;13.90;1.00
3208;DHT22;1616;52.394;9.756;2023-03-21T10:01:13;14.00;1.00
3208;DHT22;1616;52.394;9.756;2023-03-21T10:03:47;14.00;1.00
3208;DHT22;1616;52.394;9.756;2023-03-21T10:06:18;14.00;1.00
3208;DHT22;1616;52.394;9.756;2023-03-21T10:08:46;14.00;1.00
3208;DHT22;1616;52.394;9.756;2023-03-21T10:11:24;14.00;1.00
3208;DHT22;1616;52.394;9.756;2023-03-21T10:13:53;14.00;1.00
3208;DHT22;1616;52.394;9.756;2023-03-21T10:16:27;14.00;1.00
3208;DHT22;1616;52.394;9.756;2023-03-21T10:18:54;13.90;1.00
3208;DHT22;1616;52.394;9.756;2023-03-21T10:21:24;13.70;1.00
3208;DHT22;1616;52.394;9.756;2023-03-21T10:23:53;13.50;1.00
3208;DHT22;1616;52.394;9.756;2023-03-21T10:26:24;13.30;1.00
3208;DHT22;1616;52.394;9.756;2023-03-21T10:28:54;13.10;1.00
3208;DHT22;1616;52.394;9.756;2023-03-21T10:31:23;13.00;1.00
3208;DHT22;1616;52.394;9.756;2023-03-21T10:33:51;12.80;1.00
3208;DHT22;1616;52.394;9.756;2023-03-21T10:36:26;12.80;1.00
3208;DHT22;1616;52.394;9.756;2023-03-21T10:41:52;12.70;1.00
3208;DHT22;1616;52.394;9.756;2023-03-21T10:44:19;12.70;1.00
3208;DHT22;1616;52.394;9.756;2023-03-21T10:46:54;12.70;1.00
3208;DHT22;1616;52.394;9.756;2023-03-21T10:49:20;12.70;1.00
3208;DHT22;1616;52.394;9.756;2023-03-21T10:51:48;12.70;1.00
3208;DHT22;1616;52.394;9.756;2023-03-21T10:54:19;12.70;1.00
3208;DHT22;1616;52.394;9.756;2023-03-21T10:57:10;12.70;1.00
3208;DHT22;1616;52.394;9.756;2023-03-21T10:59:43;12.60;1.00
3208;DHT22;1616;52.394;9.756;2023-03-21T11:02:34;12.50;1.00
3208;DHT22;1616;52.394;9.756;2023-03-21T11:05:32;12.40;1.00
3208;DHT22;1616;52.394;9.756;2023-03-21T11:08:11;12.30;1.00
3208;DHT22;1616;52.394;9.756;2023-03-21T11:11:00;12.30;1.00
3208;DHT22;1616;52.394;9.756;2023-03-21T11:13:33;12.30;1.00
3208;DHT22;1616;52.394;9.756;2023-03-21T11:16:09;12.30;1.00
3208;DHT22;1616;52.394;9.756;2023-03-21T11:18:43;12.30;1.00
3208;DHT22;1616;52.394;9.756;2023-03-21T11:21:12;12.30;1.00
3208;DHT22;1616;52.394;9.756;2023-03-21T11:23:42;12.30;1.00
3208;DHT22;1616;52.394;9.756;2023-03-21T11:26:16;12.30;1.00
3208;DHT22;1616;52.394;9.756;2023-03-21T11:28:44;12.30;1.00
3208;DHT22;1616;52.394;9.756;2023-03-21T11:31:10;12.20;1.00
3208;DHT22;1616;52.394;9.756;2023-03-21T11:33:55;12.20;1.00
3208;DHT22;1616;52.394;9.756;2023-03-21T11:38:52;12.20;1.00
3208;DHT22;1616;52.394;9.756;2023-03-21T11:43:53;12.40;1.00
3208;DHT22;1616;52.394;9.756;2023-03-21T11:46:24;12.30;1.00
3208;DHT22;1616;52.394;9.756;2023-03-21T11:48:50;12.30;1.00
3208;DHT22;1616;52.394;9.756;2023-03-21T11:51:39;12.20;1.00
3208;DHT22;1616;52.394;9.756;2023-03-21T11:57:25;12.10;1.00
3208;DHT22;1616;52.394;9.756;2023-03-21T12:00:23;12.10;1.00
3208;DHT22;1616;52.394;9.756;2023-03-21T12:03:19;12.10;1.00
3208;DHT22;1616;52.394;9.756;2023-03-21T12:05:57;12.00;1.00
3208;DHT22;1616;52.394;9.756;2023-03-21T12:08:41;11.90;1.00
3208;DHT22;1616;52.394;9.756;2023-03-21T12:13:48;11.90;1.00
3208;DHT22;1616;52.394;9.756;2023-03-21T12:27:44;11.90;1.00
3208;DHT22;1616;52.394;9.756;2023-03-21T12:30:15;12.00;1.00
3208;DHT22;1616;52.394;9.756;2023-03-21T12:33:01;12.00;1.00
3208;DHT22;1616;52.394;9.756;2023-03-21T12:35:38;12.00;1.00
3208;DHT22;1616;52.394;9.756;2023-03-21T12:38:27;12.10;1.00
3208;DHT22;1616;52.394;9.756;2023-03-21T12:41:23;12.10;1.00
3208;DHT22;1616;52.394;9.756;2023-03-21T12:49:23;12.10;1.00
3208;DHT22;1616;52.394;9.756;2023-03-21T12:51:56;12.10;1.00
3208;DHT22;1616;52.394;9.756;2023-03-21T12:54:48;12.10;1.00
3208;DHT22;1616;52.394;9.756;2023-03-21T12:57:16;12.10;1.00
3208;DHT22;1616;52.394;9.756;2023-03-21T13:00:04;12.10;1.00
3208;DHT22;1616;52.394;9.756;2023-03-21T13:02:46;12.10;1.00
3208;DHT22;1616;52.394;9.756;2023-03-21T13:05:18;12.10;1.00
3208;DHT22;1616;52.394;9.756;2023-03-21T13:07:49;12.20;1.00
3208;DHT22;1616;52.394;9.756;2023-03-21T13:10:18;12.20;1.00
3208;DHT22;1616;52.394;9.756;2023-03-21T13:18:54;12.30;1.00
3208;DHT22;1616;52.394;9.756;2023-03-21T13:29:28;12.20;1.00
3208;DHT22;1616;52.394;9.756;2023-03-21T13:32:06;12.20;1.00
3208;DHT22;1616;52.394;9.756;2023-03-21T13:34:33;12.20;1.00
3208;DHT22;1616;52.394;9.756;2023-03-21T13:37:00;12.20;1.00
3208;DHT22;1616;52.394;9.756;2023-03-21T13:39:27;12.20;1.00
3208;DHT22;1616;52.394;9.756;2023-03-21T13:41:54;12.20;1.00
3208;DHT22;1616;52.394;9.756;2023-03-21T13:44:40;12.20;1.00
3208;DHT22;1616;52.394;9.756;2023-03-21T13:47:23;12.10;1.00
3208;DHT22;1616;52.394;9.756;2023-03-21T13:55:39;11.90;1.00
3208;DHT22;1616;52.394;9.756;2023-03-21T14:06:37;11.70;1.00
3208;DHT22;1616;52.394;9.756;2023-03-21T14:09:05;11.60;1.00
3208;DHT22;1616;52.394;9.756;2023-03-21T14:11:32;11.60;1.00
3208;DHT22;1616;52.394;9.756;2023-03-21T14:14:00;11.60;1.00
3208;DHT22;1616;52.394;9.756;2023-03-21T14:16:27;11.60;1.00
3208;DHT22;1616;52.394;9.756;2023-03-21T14:18:56;11.60;1.00
3208;DHT22;1616;52.394;9.756;2023-03-21T14:21:27;11.60;1.00
3208;DHT22;1616;52.394;9.756;2023-03-21T14:24:03;11.70;1.00
3208;DHT22;1616;52.394;9.756;2023-03-21T14:26:33;11.60;1.00
3208;DHT22;1616;52.394;9.756;2023-03-21T14:29:02;11.70;1.00
3208;DHT22;1616;52.394;9.756;2023-03-21T14:31:28;11.70;1.00
3208;DHT22;1616;52.394;9.756;2023-03-21T14:33:58;11.80;1.00
3208;DHT22;1616;52.394;9.756;2023-03-21T14:36:31;11.80;1.00
3208;DHT22;1616;52.394;9.756;2023-03-21T14:39:05;11.80;1.00
3208;DHT22;1616;52.394;9.756;2023-03-21T14:41:33;11.70;1.00
3208;DHT22;1616;52.394;9.756;2023-03-21T14:44:17;11.70;1.00
3208;DHT22;1616;52.394;9.756;2023-03-21T14:46:59;11.70;1.00
3208;DHT22;1616;52.394;9.756;2023-03-21T14:49:28;11.70;1.00
3208;DHT22;1616;52.394;9.756;2023-03-21T14:52:00;11.70;1.00
3208;DHT22;1616;52.394;9.756;2023-03-21T14:54:26;11.60;1.00
3208;DHT22;1616;52.394;9.756;2023-03-21T14:57:00;11.60;1.00
3208;DHT22;1616;52.394;9.756;2023-03-21T14:59:29;11.70;1.00
3208;DHT22;1616;52.394;9.756;2023-03-21T15:01:57;11.70;1.00
3208;DHT22;1616;52.394;9.756;2023-03-21T15:04:24;11.80;1.00
3208;DHT22;1616;52.394;9.756;2023-03-21T15:06:56;11.80;1.00
3208;DHT22;1616;52.394;9.756;2023-03-21T15:09:24;11.80;1.00
3208;DHT22;1616;52.394;9.756;2023-03-21T15:11:53;11.90;1.00
3208;DHT22;1616;52.394;9.756;2023-03-21T15:14:32;11.90;1.00
3208;DHT22;1616;52.394;9.756;2023-03-21T15:16:59;11.80;1.00
3208;DHT22;1616;52.394;9.756;2023-03-21T15:19:32;11.80;1.00
3208;DHT22;1616;52.394;9.756;2023-03-21T15:22:59;11.80;1.00
3208;DHT22;1616;52.394;9.756;2023-03-21T15:25:10;11.80;1.00
3208;DHT22;1616;52.394;9.756;2023-03-21T15:27:40;11.80;1.00
3208;DHT22;1616;52.394;9.756;2023-03-21T15:30:21;11.70;1.00
3208;DHT22;1616;52.394;9.756;2023-03-21T15:32:47;11.80;1.00
3208;DHT22;1616;52.394;9.756;2023-03-21T15:35:21;11.80;1.00
3208;DHT22;1616;52.394;9.756;2023-03-21T15:37:55;11.80;1.00
3208;DHT22;1616;52.394;9.756;2023-03-21T15:40:26;11.80;1.00
3208;DHT22;1616;52.394;9.756;2023-03-21T15:43:13;11.80;1.00
3208;DHT22;1616;52.394;9.756;2023-03-21T15:45:50;11.80;1.00
3208;DHT22;1616;52.394;9.756;2023-03-21T15:48:21;11.70;1.00
3208;DHT22;1616;52.394;9.756;2023-03-21T15:51:04;11.70;1.00
3208;DHT22;1616;52.394;9.756;2023-03-21T15:53:35;11.70;1.00
3208;DHT22;1616;52.394;9.756;2023-03-21T15:56:03;11.80;1.00
3208;DHT22;1616;52.394;9.756;2023-03-21T15:58:36;11.80;1.00
3208;DHT22;1616;52.394;9.756;2023-03-21T16:01:05;11.80;1.00
3208;DHT22;1616;52.394;9.756;2023-03-21T16:03:37;11.80;1.00
3208;DHT22;1616;52.394;9.756;2023-03-21T16:06:17;11.80;1.00
3208;DHT22;1616;52.394;9.756;2023-03-21T16:13:47;11.80;1.00
3208;DHT22;1616;52.394;9.756;2023-03-21T16:16:15;11.80;1.00
3208;DHT22;1616;52.394;9.756;2023-03-21T16:18:42;11.80;1.00
3208;DHT22;1616;52.394;9.756;2023-03-21T16:21:16;11.80;1.00
3208;DHT22;1616;52.394;9.756;2023-03-21T16:23:43;11.70;1.00
3208;DHT22;1616;52.394;9.756;2023-03-21T16:26:14;11.70;1.00
3208;DHT22;1616;52.394;9.756;2023-03-21T16:28:42;11.70;1.00
3208;DHT22;1616;52.394;9.756;2023-03-21T16:31:16;11.60;1.00
3208;DHT22;1616;52.394;9.756;2023-03-21T16:33:43;11.70;1.00
3208;DHT22;1616;52.394;9.756;2023-03-21T16:36:23;11.60;1.00
3208;DHT22;1616;52.394;9.756;2023-03-21T16:38:49;11.60;1.00
3208;DHT22;1616;52.394;9.756;2023-03-21T16:41:18;11.60;1.00
3208;DHT22;1616;52.394;9.756;2023-03-21T16:43:44;11.50;1.00
3208;DHT22;1616;52.394;9.756;2023-03-21T16:46:16;11.50;1.00
3208;DHT22;1616;52.394;9.756;2023-03-21T16:48:43;11.50;1.00
3208;DHT22;1616;52.394;9.756;2023-03-21T16:51:17;11.50;1.00
3208;DHT22;1616;52.394;9.756;2023-03-21T16:53:44;11.50;1.00
3208;DHT22;1616;52.394;9.756;2023-03-21T16:56:19;11.50;1.00
3208;DHT22;1616;52.394;9.756;2023-03-21T16:58:45;11.60;1.00
3208;DHT22;1616;52.394;9.756;2023-03-21T17:01:17;11.50;1.00
3208;DHT22;1616;52.394;9.756;2023-03-21T17:03:50;11.50;1.00
3208;DHT22;1616;52.394;9.756;2023-03-21T17:06:24;11.50;1.00
3208;DHT22;1616;52.394;9.756;2023-03-21T17:08:51;11.50;1.00
3208;DHT22;1616;52.394;9.756;2023-03-21T17:11:18;11.60;1.00
3208;DHT22;1616;52.394;9.756;2023-03-21T17:13:46;11.50;1.00
3208;DHT22;1616;52.394;9.756;2023-03-21T17:16:15;11.50;1.00
3208;DHT22;1616;52.394;9.756;2023-03-21T17:18:41;11.50;1.00
3208;DHT22;1616;52.394;9.756;2023-03-21T17:21:12;11.50;1.00
3208;DHT22;1616;52.394;9.756;2023-03-21T17:23:38;11.50;1.00
3208;DHT22;1616;52.394;9.756;2023-03-21T17:26:04;11.50;1.00
3208;DHT22;1616;52.394;9.756;2023-03-21T17:28:30;11.50;1.00
3208;DHT22;1616;52.394;9.756;2023-03-21T17:30:56;11.50;1.00
3208;DHT22;1616;52.394;9.756;2023-03-21T17:33:21;11.60;1.00
3208;DHT22;1616;52.394;9.756;2023-03-21T17:35:48;11.60;1.00
3208;DHT22;1616;52.394;9.756;2023-03-21T17:38:15;11.60;1.00
3208;DHT22;1616;52.394;9.756;2023-03-21T17:40:41;11.60;1.00
3208;DHT22;1616;52.394;9.756;2023-03-21T17:43:14;11.60;1.00
3208;DHT22;1616;52.394;9.756;2023-03-21T17:45:41;11.60;1.00
3208;DHT22;1616;52.394;9.756;2023-03-21T17:48:06;11.60;1.00
3208;DHT22;1616;52.394;9.756;2023-03-21T17:50:32;11.60;1.00
3208;DHT22;1616;52.394;9.756;2023-03-21T17:52:59;11.60;1.00
3208;DHT22;1616;52.394;9.756;2023-03-21T17:55:25;11.60;1.00
3208;DHT22;1616;52.394;9.756;2023-03-21T17:57:51;11.60;1.00
3208;DHT22;1616;52.394;9.756;2023-03-21T18:00:19;11.60;1.00
3208;DHT22;1616;52.394;9.756;2023-03-21T18:02:47;11.60;1.00
3208;DHT22;1616;52.394;9.756;2023-03-21T18:05:13;11.50;1.00
3208;DHT22;1616;52.394;9.756;2023-03-21T18:07:40;11.60;1.00